Time;durP1;ratioP1;P1;durP2;ratioP2;P2;SDS_P1;SDS_P2;PMS_P1;PMS_P2;Temp;Humidity;BMP_temperature;BMP_pressure;BME280_temperature;BME280_humidity;BME280_pressure;Samples;Min_cycle;Max_cycle;Signal;HPM_P1;HPM_P2
2023/10/07 00:00:54;;;;;;;14.98;4.93;;;;;;;;;;10270914;28;20068;-64
2023/10/07 00:06:00;;;;;;;5.60;4.45;;;;;;;;;;10270766;28;20084;-64
2023/10/07 00:11:00;;;;;;;11.30;5.57;;;;;;;;;;10272617;28;20088;-64
2023/10/07 00:15:59;;;;;;;13.30;5.70;;;;;;;;;;10268994;28;20125;-64
2023/10/07 00:20:58;;;;;;;9.88;5.53;;;;;;;;;;10269787;28;20102;-64
2023/10/07 00:25:57;;;;;;;11.90;5.55;;;;;;;;;;10271450;28;20076;-64
2023/10/07 00:31:01;;;;;;;10.57;5.53;;;;;;;;;;10268717;28;20064;-64
2023/10/07 00:36:05;;;;;;;7.35;5.40;;;;;;;;;;10270955;28;20451;-64
2023/10/07 00:41:05;;;;;;;7.00;5.57;;;;;;;;;;10267709;28;20049;-64
2023/10/07 00:46:10;;;;;;;8.60;4.95;;;;;;;;;;10271171;28;20072;-64
2023/10/07 00:51:11;;;;;;;11.32;6.07;;;;;;;;;;10274115;28;20072;-64
2023/10/07 00:56:10;;;;;;;12.27;5.53;;;;;;;;;;10283547;28;20092;-62
2023/10/07 01:01:10;;;;;;;9.38;5.90;;;;;;;;;;10270754;28;20088;-63
2023/10/07 01:06:12;;;;;;;9.25;6.40;;;;;;;;;;10274173;28;20107;-63
2023/10/07 01:11:22;;;;;;;8.82;5.22;;;;;;;;;;10267052;28;20114;-63
2023/10/07 01:21:46;;;;;;;12.13;4.75;;;;;;;;;;10265159;28;20090;-63
2023/10/07 01:26:46;;;;;;;8.75;5.95;;;;;;;;;;10273878;28;20072;-62
2023/10/07 01:31:59;;;;;;;12.93;5.30;;;;;;;;;;10272638;28;20068;-63
2023/10/07 01:37:00;;;;;;;9.52;5.45;;;;;;;;;;10267013;28;20080;-63
2023/10/07 01:42:03;;;;;;;12.95;5.53;;;;;;;;;;10263933;28;20072;-63
2023/10/07 01:47:03;;;;;;;8.73;4.97;;;;;;;;;;10269490;28;20072;-63
2023/10/07 01:52:03;;;;;;;7.25;4.65;;;;;;;;;;10277008;28;20327;-63
2023/10/07 01:57:05;;;;;;;6.85;4.97;;;;;;;;;;10290219;28;20072;-63
2023/10/07 02:02:06;;;;;;;7.30;5.05;;;;;;;;;;10274638;28;20068;-63
2023/10/07 02:07:05;;;;;;;12.90;5.00;;;;;;;;;;10281977;28;20506;-63
2023/10/07 02:12:09;;;;;;;7.38;5.32;;;;;;;;;;10280744;28;20080;-63
2023/10/07 02:17:08;;;;;;;9.73;4.68;;;;;;;;;;10280550;28;20458;-63
2023/10/07 02:22:08;;;;;;;9.32;5.45;;;;;;;;;;10276141;28;20068;-62
2023/10/07 02:27:17;;;;;;;8.93;4.65;;;;;;;;;;10274910;28;20072;-62
2023/10/07 02:32:17;;;;;;;7.32;4.78;;;;;;;;;;10274808;28;20083;-62
2023/10/07 02:37:16;;;;;;;7.45;5.10;;;;;;;;;;10274928;28;20072;-64
2023/10/07 02:42:22;;;;;;;8.27;5.30;;;;;;;;;;10280955;28;20084;-64
2023/10/07 02:47:21;;;;;;;7.70;5.13;;;;;;;;;;10268480;28;20140;-64
2023/10/07 02:52:20;;;;;;;10.80;4.60;;;;;;;;;;10277399;28;20103;-64
2023/10/07 02:57:28;;;;;;;9.82;4.93;;;;;;;;;;10273633;28;20073;-63
2023/10/07 03:02:37;;;;;;;6.38;4.25;;;;;;;;;;10272937;28;20091;-63
2023/10/07 03:07:41;;;;;;;6.68;4.78;;;;;;;;;;10275115;28;20075;-64
2023/10/07 03:12:47;;;;;;;6.75;4.95;;;;;;;;;;10287110;28;20081;-64
2023/10/07 03:17:46;;;;;;;6.70;4.22;;;;;;;;;;10277094;28;20091;-64
2023/10/07 03:23:10;;;;;;;12.73;4.75;;;;;;;;;;10272415;28;20076;-63
2023/10/07 03:28:16;;;;;;;5.75;4.82;;;;;;;;;;10273472;28;20072;-64
2023/10/07 03:33:15;;;;;;;5.15;4.53;;;;;;;;;;10272697;28;20072;-64
2023/10/07 03:38:14;;;;;;;10.88;5.05;;;;;;;;;;10272732;28;20545;-64
2023/10/07 03:43:13;;;;;;;11.90;4.10;;;;;;;;;;10272753;28;20092;-64
2023/10/07 03:48:24;;;;;;;6.15;3.95;;;;;;;;;;10272104;28;20091;-63
2023/10/07 03:53:23;;;;;;;10.25;4.72;;;;;;;;;;10273284;28;20167;-64
2023/10/07 03:58:23;;;;;;;7.97;4.30;;;;;;;;;;10272380;28;20095;-64
2023/10/07 04:03:23;;;;;;;8.20;4.53;;;;;;;;;;10271853;28;20072;-63
2023/10/07 04:08:22;;;;;;;7.28;4.68;;;;;;;;;;10271546;28;20118;-63
2023/10/07 04:13:22;;;;;;;6.35;4.70;;;;;;;;;;10271450;28;20099;-63
2023/10/07 04:18:34;;;;;;;6.72;4.05;;;;;;;;;;10271048;28;20073;-63
2023/10/07 04:23:32;;;;;;;7.43;4.13;;;;;;;;;;10273599;28;20068;-63
2023/10/07 04:28:31;;;;;;;11.52;4.70;;;;;;;;;;10270975;28;20076;-63
2023/10/07 04:33:39;;;;;;;10.77;5.00;;;;;;;;;;10270494;28;20080;-63
2023/10/07 04:38:52;;;;;;;6.90;3.95;;;;;;;;;;10270930;28;20560;-63
2023/10/07 04:43:54;;;;;;;6.65;4.13;;;;;;;;;;10271352;28;20068;-63
2023/10/07 04:48:59;;;;;;;10.73;6.22;;;;;;;;;;10268903;28;20087;-63
2023/10/07 04:53:58;;;;;;;10.48;6.55;;;;;;;;;;10272312;28;20544;-63
2023/10/07 04:59:00;;;;;;;6.70;5.35;;;;;;;;;;10271470;28;20087;-63
2023/10/07 05:04:04;;;;;;;18.48;9.98;;;;;;;;;;10270029;28;20072;-63
2023/10/07 05:09:09;;;;;;;29.63;17.25;;;;;;;;;;10270227;28;20403;-63
2023/10/07 05:14:08;;;;;;;;;;;;;;;;;;10273172;28;20077;-63
2023/10/07 05:19:09;;;;;;;44.55;24.13;;;;;;;;;;10269848;28;19971;-63
2023/10/07 05:24:11;;;;;;;33.45;17.77;;;;;;;;;;10276491;28;20580;-62
2023/10/07 05:29:12;;;;;;;29.35;16.60;;;;;;;;;;10276620;28;20435;-63
2023/10/07 05:34:13;;;;;;;23.92;13.25;;;;;;;;;;10275406;28;20517;-63
2023/10/07 05:39:14;;;;;;;15.05;7.25;;;;;;;;;;10279675;28;20083;-63
2023/10/07 05:44:14;;;;;;;11.55;5.20;;;;;;;;;;10281051;28;20068;-63
2023/10/07 05:49:14;;;;;;;10.88;4.30;;;;;;;;;;10276704;28;20072;-63
2023/10/07 05:54:12;;;;;;;6.30;4.25;;;;;;;;;;10273235;28;20513;-63
2023/10/07 05:59:11;;;;;;;14.30;4.57;;;;;;;;;;10285098;28;20060;-63
2023/10/07 06:04:11;;;;;;;7.93;4.75;;;;;;;;;;10277090;28;20072;-63
2023/10/07 06:09:14;;;;;;;7.32;4.25;;;;;;;;;;10280407;28;20081;-64
2023/10/07 06:14:12;;;;;;;8.60;4.30;;;;;;;;;;10276171;28;20088;-62
2023/10/07 06:19:13;;;;;;;13.25;4.40;;;;;;;;;;10279488;28;20092;-62
2023/10/07 06:24:20;;;;;;;12.20;4.20;;;;;;;;;;10280975;28;20288;-62
2023/10/07 06:29:19;;;;;;;7.18;4.65;;;;;;;;;;10272306;28;20068;-63
2023/10/07 06:34:25;;;;;;;7.93;4.95;;;;;;;;;;10275424;28;20099;-63
2023/10/07 06:39:28;;;;;;;7.70;4.40;;;;;;;;;;10266082;28;20331;-63
2023/10/07 06:44:26;;;;;;;9.30;6.00;;;;;;;;;;10276960;28;20409;-63
2023/10/07 06:49:28;;;;;;;10.05;5.32;;;;;;;;;;10276155;28;20068;-62
2023/10/07 06:54:32;;;;;;;9.10;4.82;;;;;;;;;;10267831;28;20079;-62
2023/10/07 06:59:31;;;;;;;;;;;;;;;;;;10278198;28;20498;-63
2023/10/07 07:04:30;;;;;;;6.75;4.60;;;;;;;;;;10273497;28;19963;-63
2023/10/07 07:14:50;;;;;;;11.70;4.85;;;;;;;;;;10266910;28;20083;-63
2023/10/07 07:20:15;;;;;;;10.83;5.03;;;;;;;;;;10279713;28;20080;-63
2023/10/07 07:25:18;;;;;;;6.10;3.63;;;;;;;;;;10269008;28;20061;-63
2023/10/07 07:30:19;;;;;;;8.57;4.38;;;;;;;;;;10263301;28;20510;-64
2023/10/07 07:35:22;;;;;;;7.78;4.43;;;;;;;;;;10260901;28;20502;-63
2023/10/07 07:40:55;;;;;;;7.53;4.72;;;;;;;;;;10267700;28;20084;-63
2023/10/07 07:46:18;;;;;;;10.27;5.17;;;;;;;;;;10265929;28;20550;-62
2023/10/07 07:51:17;;;;;;;11.75;5.63;;;;;;;;;;10263995;28;20067;-62
2023/10/07 07:56:16;;;;;;;13.82;5.55;;;;;;;;;;10266889;28;20076;-63
2023/10/07 08:01:22;;;;;;;17.60;5.00;;;;;;;;;;10264626;28;20081;-63
2023/10/07 08:06:21;;;;;;;14.27;5.65;;;;;;;;;;10264308;28;20072;-63
2023/10/07 08:11:24;;;;;;;10.98;5.28;;;;;;;;;;10262920;28;20073;-63
2023/10/07 08:16:26;;;;;;;11.57;5.40;;;;;;;;;;10265462;28;20092;-63
2023/10/07 08:21:29;;;;;;;10.82;5.28;;;;;;;;;;10267758;28;20422;-63
2023/10/07 08:26:27;;;;;;;6.63;5.47;;;;;;;;;;10267857;28;20060;-63
2023/10/07 08:31:37;;;;;;;11.70;4.80;;;;;;;;;;10271827;28;20069;-62
2023/10/07 08:36:37;;;;;;;15.80;6.10;;;;;;;;;;10270162;28;20084;-62
2023/10/07 08:41:37;;;;;;;28.63;6.22;;;;;;;;;;10271981;28;20069;-62
2023/10/07 08:46:39;;;;;;;18.25;5.60;;;;;;;;;;10270939;28;20073;-63
2023/10/07 08:51:41;;;;;;;10.90;5.32;;;;;;;;;;10269640;28;20072;-62
2023/10/07 08:56:41;;;;;;;14.65;5.60;;;;;;;;;;10270411;28;20076;-63
2023/10/07 09:01:43;;;;;;;16.30;5.35;;;;;;;;;;10275730;28;20075;-62
2023/10/07 09:06:50;;;;;;;11.38;5.35;;;;;;;;;;10279748;28;20087;-62
2023/10/07 09:11:51;;;;;;;10.25;4.22;;;;;;;;;;10278797;28;20072;-63
2023/10/07 09:16:51;;;;;;;8.85;5.22;;;;;;;;;;10280880;28;20089;-63
2023/10/07 09:21:56;;;;;;;14.10;4.88;;;;;;;;;;10279462;28;20494;-63
2023/10/07 09:26:58;;;;;;;9.38;5.32;;;;;;;;;;10276503;28;20100;-64
2023/10/07 09:32:04;;;;;;;15.27;5.30;;;;;;;;;;10278461;28;20545;-64
2023/10/07 09:37:09;;;;;;;12.43;5.10;;;;;;;;;;10276791;28;20076;-64
2023/10/07 09:42:25;;;;;;;14.32;5.60;;;;;;;;;;10278137;28;20087;-63
2023/10/07 09:47:26;;;;;;;8.57;4.88;;;;;;;;;;10280390;28;20077;-62
2023/10/07 09:52:32;;;;;;;15.77;4.47;;;;;;;;;;10277426;28;20068;-64
2023/10/07 09:57:42;;;;;;;11.68;4.82;;;;;;;;;;10276325;28;20072;-64
2023/10/07 10:02:51;;;;;;;11.05;4.72;;;;;;;;;;10277744;28;20060;-62
2023/10/07 10:07:56;;;;;;;10.95;5.07;;;;;;;;;;10274129;28;20076;-62
2023/10/07 10:13:06;;;;;;;10.95;4.80;;;;;;;;;;10271343;28;20076;-63
2023/10/07 10:18:35;;;;;;;14.55;4.80;;;;;;;;;;10272628;28;20080;-62
2023/10/07 10:23:33;;;;;;;12.95;5.00;;;;;;;;;;10274552;28;20458;-63
2023/10/07 10:28:33;;;;;;;9.52;4.47;;;;;;;;;;10273728;28;20072;-63
2023/10/07 10:33:35;;;;;;;18.20;4.93;;;;;;;;;;10274963;28;20079;-63
2023/10/07 10:38:37;;;;;;;15.80;4.60;;;;;;;;;;10273932;28;20068;-63
2023/10/07 10:43:35;;;;;;;11.65;4.45;;;;;;;;;;10275169;28;20080;-62
2023/10/07 10:48:37;;;;;;;10.73;4.22;;;;;;;;;;10273969;28;20620;-63
2023/10/07 10:53:40;;;;;;;11.40;4.43;;;;;;;;;;10273695;28;20073;-63
2023/10/07 10:58:39;;;;;;;10.67;4.30;;;;;;;;;;10274658;28;20487;-63
2023/10/07 11:03:41;;;;;;;10.13;4.22;;;;;;;;;;10272708;28;20830;-63
2023/10/07 11:08:40;;;;;;;6.18;4.10;;;;;;;;;;10274664;28;20061;-64
2023/10/07 11:13:39;;;;;;;12.02;4.82;;;;;;;;;;10271511;28;20080;-63
2023/10/07 11:18:41;;;;;;;5.68;4.03;;;;;;;;;;10274201;28;20077;-63
2023/10/07 11:23:46;;;;;;;11.48;4.07;;;;;;;;;;10273771;28;20072;-63
2023/10/07 11:28:44;;;;;;;6.43;3.15;;;;;;;;;;10277966;28;20506;-64
2023/10/07 11:33:51;;;;;;;9.48;3.08;;;;;;;;;;10270930;28;20064;-63
2023/10/07 11:38:50;;;;;;;11.43;3.78;;;;;;;;;;10271344;28;20077;-63
2023/10/07 11:43:48;;;;;;;8.02;3.40;;;;;;;;;;10276016;28;20345;-63
2023/10/07 11:48:47;;;;;;;13.98;4.20;;;;;;;;;;10272632;28;20646;-62
2023/10/07 11:53:46;;;;;;;6.95;4.40;;;;;;;;;;10273774;28;20083;-63
2023/10/07 11:58:46;;;;;;;10.60;5.40;;;;;;;;;;10271115;28;20076;-63
2023/10/07 12:03:44;;;;;;;10.02;4.65;;;;;;;;;;10272048;28;20076;-62
2023/10/07 12:08:43;;;;;;;9.73;4.20;;;;;;;;;;10271088;28;20512;-62
2023/10/07 12:13:42;;;;;;;7.53;4.10;;;;;;;;;;10266682;28;20076;-63
2023/10/07 12:18:41;;;;;;;10.43;4.25;;;;;;;;;;10276121;28;20502;-63
2023/10/07 12:23:41;;;;;;;8.80;5.15;;;;;;;;;;10280253;28;20462;-63
2023/10/07 12:28:41;;;;;;;8.55;3.92;;;;;;;;;;10276172;28;20075;-63
2023/10/07 12:33:43;;;;;;;7.82;4.18;;;;;;;;;;10278494;28;20541;-63
2023/10/07 12:38:41;;;;;;;16.25;4.70;;;;;;;;;;10274771;28;20084;-63
2023/10/07 12:43:39;;;;;;;8.57;4.45;;;;;;;;;;10276648;28;20097;-63
2023/10/07 12:48:39;;;;;;;6.32;3.55;;;;;;;;;;10268991;28;20080;-62
2023/10/07 12:53:44;;;;;;;9.18;4.13;;;;;;;;;;10270305;28;20072;-63
2023/10/07 12:58:45;;;;;;;7.88;3.72;;;;;;;;;;10271066;28;20577;-62
2023/10/07 13:03:44;;;;;;;8.88;3.80;;;;;;;;;;10271861;28;20069;-63
2023/10/07 13:08:44;;;;;;;5.78;3.60;;;;;;;;;;10271412;28;20069;-64
2023/10/07 13:13:45;;;;;;;8.20;3.60;;;;;;;;;;10277470;28;20084;-64
2023/10/07 13:18:45;;;;;;;9.45;4.35;;;;;;;;;;10269893;28;20069;-63
2023/10/07 13:23:47;;;;;;;8.88;4.55;;;;;;;;;;10275010;28;20095;-63
2023/10/07 13:28:48;;;;;;;6.55;3.78;;;;;;;;;;10268207;28;20081;-63
2023/10/07 13:33:47;;;;;;;8.43;4.18;;;;;;;;;;10277899;28;20072;-63
2023/10/07 13:38:46;;;;;;;5.95;4.07;;;;;;;;;;10268757;28;20080;-64
2023/10/07 13:43:45;;;;;;;9.57;4.18;;;;;;;;;;10267078;28;20099;-63
2023/10/07 13:48:43;;;;;;;9.05;3.97;;;;;;;;;;10266584;28;20068;-63
2023/10/07 13:53:51;;;;;;;8.32;4.68;;;;;;;;;;10275908;28;20069;-64
2023/10/07 13:58:51;;;;;;;6.53;4.45;;;;;;;;;;10268508;28;20087;-63
2023/10/07 14:03:50;;;;;;;13.98;5.03;;;;;;;;;;10268624;28;20072;-62
2023/10/07 14:08:52;;;;;;;15.45;4.85;;;;;;;;;;10272711;28;20163;-62
2023/10/07 14:13:52;;;;;;;10.10;4.47;;;;;;;;;;10270718;28;20088;-63
2023/10/07 14:18:50;;;;;;;5.88;4.68;;;;;;;;;;10273374;28;20081;-62
2023/10/07 14:23:49;;;;;;;7.43;4.85;;;;;;;;;;10276103;28;20084;-63
2023/10/07 14:28:47;;;;;;;7.00;4.47;;;;;;;;;;10282858;28;20084;-62
2023/10/07 14:33:47;;;;;;;12.55;4.20;;;;;;;;;;10275081;28;20080;-63
2023/10/07 14:38:45;;;;;;;9.23;3.97;;;;;;;;;;10275019;28;20080;-63
2023/10/07 14:43:44;;;;;;;9.65;5.55;;;;;;;;;;10274517;28;20068;-63
2023/10/07 14:48:45;;;;;;;12.65;4.57;;;;;;;;;;10274878;28;20064;-64
2023/10/07 14:53:46;;;;;;;10.40;4.47;;;;;;;;;;10274739;28;20084;-63
2023/10/07 14:58:47;;;;;;;7.10;3.70;;;;;;;;;;10274140;28;20509;-63
2023/10/07 15:03:45;;;;;;;13.30;4.82;;;;;;;;;;10274558;28;20068;-63
2023/10/07 15:08:45;;;;;;;8.00;5.13;;;;;;;;;;10273159;28;20489;-63
2023/10/07 15:13:44;;;;;;;6.55;3.88;;;;;;;;;;10282356;28;20091;-63
2023/10/07 15:18:44;;;;;;;8.75;4.93;;;;;;;;;;10275665;28;20093;-63
2023/10/07 15:23:43;;;;;;;10.93;4.95;;;;;;;;;;10280002;28;20126;-62
2023/10/07 15:28:43;;;;;;;12.77;5.30;;;;;;;;;;10271935;28;20534;-63
2023/10/07 15:33:52;;;;;;;11.10;4.60;;;;;;;;;;10276004;28;20076;-63
2023/10/07 15:38:51;;;;;;;8.45;4.30;;;;;;;;;;10272802;28;20091;-62
2023/10/07 15:43:51;;;;;;;14.07;5.97;;;;;;;;;;10272018;28;20479;-63
2023/10/07 15:48:49;;;;;;;9.07;4.55;;;;;;;;;;10271609;28;20088;-62
2023/10/07 15:53:47;;;;;;;22.58;14.75;;;;;;;;;;10273823;28;20080;-63
2023/10/07 15:58:47;;;;;;;17.15;5.68;;;;;;;;;;10274353;28;20076;-62
2023/10/07 16:03:47;;;;;;;10.27;5.45;;;;;;;;;;10269989;28;20073;-63
2023/10/07 16:08:46;;;;;;;13.73;5.25;;;;;;;;;;10270889;28;20068;-62
2023/10/07 16:13:46;;;;;;;9.85;5.28;;;;;;;;;;10272907;28;20080;-63
2023/10/07 16:18:45;;;;;;;15.95;6.43;;;;;;;;;;10269081;28;20513;-63
2023/10/07 16:23:45;;;;;;;14.32;5.60;;;;;;;;;;10270875;28;20079;-63
2023/10/07 16:28:44;;;;;;;10.60;5.38;;;;;;;;;;10269706;28;20075;-63
2023/10/07 16:33:43;;;;;;;10.43;5.28;;;;;;;;;;10271573;28;20081;-63
2023/10/07 16:38:42;;;;;;;12.10;4.65;;;;;;;;;;10275638;28;20069;-63
2023/10/07 16:43:45;;;;;;;8.27;4.35;;;;;;;;;;10271483;28;20107;-63
2023/10/07 16:48:45;;;;;;;6.43;5.05;;;;;;;;;;10272273;28;20530;-63
2023/10/07 16:53:43;;;;;;;10.35;5.85;;;;;;;;;;10270754;28;20074;-63
2023/10/07 16:58:42;;;;;;;9.55;5.80;;;;;;;;;;10271382;28;20538;-64
2023/10/07 17:03:42;;;;;;;11.13;5.38;;;;;;;;;;10271638;28;20101;-63
2023/10/07 17:08:41;;;;;;;12.88;5.18;;;;;;;;;;10268850;28;20072;-63
2023/10/07 17:13:42;;;;;;;7.82;5.57;;;;;;;;;;10269669;28;20087;-64
2023/10/07 17:18:41;;;;;;;18.45;5.20;;;;;;;;;;10269080;28;20091;-64
2023/10/07 17:23:39;;;;;;;6.53;4.82;;;;;;;;;;10277034;28;20080;-64
2023/10/07 17:28:38;;;;;;;9.23;5.68;;;;;;;;;;10277787;28;20072;-62
2023/10/07 17:33:36;;;;;;;11.88;5.57;;;;;;;;;;10283926;28;20060;-63
2023/10/07 17:38:37;;;;;;;9.32;5.50;;;;;;;;;;10298161;28;20073;-63
2023/10/07 17:43:36;;;;;;;8.77;6.90;;;;;;;;;;10298969;28;20087;-64
2023/10/07 17:48:34;;;;;;;10.82;5.78;;;;;;;;;;10297175;28;20083;-63
2023/10/07 17:53:33;;;;;;;10.38;6.55;;;;;;;;;;10294707;28;20068;-63
2023/10/07 17:58:33;;;;;;;12.60;6.70;;;;;;;;;;10295793;28;20588;-64
2023/10/07 18:03:31;;;;;;;13.10;7.13;;;;;;;;;;10297093;28;20068;-64
2023/10/07 18:08:30;;;;;;;13.30;6.57;;;;;;;;;;10296131;28;20068;-63
2023/10/07 18:13:29;;;;;;;10.70;6.32;;;;;;;;;;10292756;28;20083;-63
2023/10/07 18:18:29;;;;;;;14.77;6.18;;;;;;;;;;10296970;28;20072;-64
2023/10/07 18:23:28;;;;;;;9.23;5.70;;;;;;;;;;10294829;28;20489;-64
2023/10/07 18:28:26;;;;;;;13.25;6.57;;;;;;;;;;10295758;28;20105;-64
2023/10/07 18:33:25;;;;;;;8.70;6.20;;;;;;;;;;10294943;28;20075;-64
2023/10/07 18:38:26;;;;;;;7.03;5.35;;;;;;;;;;10296178;28;20095;-62
2023/10/07 18:43:24;;;;;;;11.18;5.50;;;;;;;;;;10294476;28;20065;-62
2023/10/07 18:48:22;;;;;;;10.77;5.43;;;;;;;;;;10292678;28;20101;-63
2023/10/07 18:53:21;;;;;;;6.72;5.30;;;;;;;;;;10295168;28;20064;-63
2023/10/07 18:58:20;;;;;;;11.90;5.13;;;;;;;;;;10295009;28;20068;-62
2023/10/07 19:03:18;;;;;;;8.20;5.80;;;;;;;;;;10294124;28;20103;-64
2023/10/07 19:08:17;;;;;;;7.97;5.88;;;;;;;;;;10289352;28;20075;-62
2023/10/07 19:13:15;;;;;;;6.43;5.00;;;;;;;;;;10287456;28;20080;-63
2023/10/07 19:18:16;;;;;;;9.40;5.38;;;;;;;;;;10285866;28;20206;-63
2023/10/07 19:23:14;;;;;;;8.18;5.07;;;;;;;;;;10292831;28;20099;-63
2023/10/07 19:28:12;;;;;;;11.98;5.65;;;;;;;;;;10294566;28;20486;-63
2023/10/07 19:33:11;;;;;;;7.00;5.68;;;;;;;;;;10293386;28;20084;-63
2023/10/07 19:38:10;;;;;;;5.75;4.72;;;;;;;;;;10293240;28;20471;-63
2023/10/07 19:43:08;;;;;;;57.83;8.68;;;;;;;;;;10291427;28;20083;-62
2023/10/07 19:48:07;;;;;;;13.20;5.25;;;;;;;;;;10292454;28;20505;-64
2023/10/07 19:53:06;;;;;;;8.73;5.10;;;;;;;;;;10293447;28;20084;-63
2023/10/07 19:58:06;;;;;;;7.10;5.60;;;;;;;;;;10291435;28;20079;-63
2023/10/07 20:03:04;;;;;;;9.43;5.18;;;;;;;;;;10292414;28;20107;-63
2023/10/07 20:08:03;;;;;;;7.22;4.15;;;;;;;;;;10291969;28;20383;-63
2023/10/07 20:13:02;;;;;;;9.75;5.05;;;;;;;;;;10290681;28;20076;-63
2023/10/07 20:18:01;;;;;;;12.70;6.85;;;;;;;;;;10289205;28;20076;-63
2023/10/07 20:22:59;;;;;;;10.23;5.40;;;;;;;;;;10288962;28;20163;-63
2023/10/07 20:28:00;;;;;;;8.93;5.82;;;;;;;;;;10288159;28;20130;-63
2023/10/07 20:33:02;;;;;;;8.13;4.78;;;;;;;;;;10288422;28;20515;-63
2023/10/07 20:38:04;;;;;;;7.10;5.10;;;;;;;;;;10290740;28;20079;-63
2023/10/07 20:43:03;;;;;;;8.70;4.60;;;;;;;;;;10291417;28;20076;-63
2023/10/07 20:48:01;;;;;;;6.63;4.25;;;;;;;;;;10290112;28;20060;-63
2023/10/07 20:52:59;;;;;;;10.10;5.03;;;;;;;;;;10291138;28;20073;-63
2023/10/07 20:57:59;;;;;;;8.25;4.85;;;;;;;;;;10288981;28;20540;-63
2023/10/07 21:02:57;;;;;;;8.65;5.20;;;;;;;;;;10288379;28;20083;-63
2023/10/07 21:07:56;;;;;;;7.88;5.13;;;;;;;;;;10289892;28;20120;-63
2023/10/07 21:12:54;;;;;;;9.27;4.80;;;;;;;;;;10289505;28;20083;-62
2023/10/07 21:17:54;;;;;;;7.57;4.70;;;;;;;;;;10290128;28;20540;-63
2023/10/07 21:22:53;;;;;;;8.90;5.18;;;;;;;;;;10288102;28;20072;-63
2023/10/07 21:27:51;;;;;;;9.30;4.65;;;;;;;;;;10289360;28;20489;-63
2023/10/07 21:32:49;;;;;;;11.65;5.22;;;;;;;;;;10290083;28;20072;-63
2023/10/07 21:37:49;;;;;;;9.32;5.05;;;;;;;;;;10289586;28;20064;-63
2023/10/07 21:42:47;;;;;;;9.13;5.57;;;;;;;;;;10290193;28;20491;-64
2023/10/07 21:47:46;;;;;;;9.07;6.65;;;;;;;;;;10289311;28;20471;-64
2023/10/07 21:52:47;;;;;;;14.10;7.53;;;;;;;;;;10287995;28;20079;-63
2023/10/07 21:57:48;;;;;;;18.05;7.82;;;;;;;;;;10288803;28;20060;-63
2023/10/07 22:02:48;;;;;;;11.32;7.28;;;;;;;;;;10288755;28;20068;-63
2023/10/07 22:07:47;;;;;;;12.13;7.18;;;;;;;;;;10292585;28;20041;-63
2023/10/07 22:12:47;;;;;;;9.70;5.80;;;;;;;;;;10294892;28;20083;-63
2023/10/07 22:17:45;;;;;;;9.23;5.53;;;;;;;;;;10296137;28;20106;-63
2023/10/07 22:22:45;;;;;;;9.23;5.78;;;;;;;;;;10292683;28;20072;-63
2023/10/07 22:27:45;;;;;;;9.05;5.35;;;;;;;;;;10293983;28;20072;-63
2023/10/07 22:32:45;;;;;;;11.27;5.22;;;;;;;;;;10291708;28;20072;-63
2023/10/07 22:37:47;;;;;;;9.77;5.43;;;;;;;;;;10293078;28;20072;-63
2023/10/07 22:42:45;;;;;;;7.38;4.80;;;;;;;;;;10295207;28;20082;-63
2023/10/07 22:47:45;;;;;;;9.20;4.72;;;;;;;;;;10294642;28;20470;-63
2023/10/07 22:52:43;;;;;;;9.20;5.32;;;;;;;;;;10293988;28;20082;-63
2023/10/07 22:57:41;;;;;;;6.72;4.72;;;;;;;;;;10292242;28;20079;-63
2023/10/07 23:02:40;;;;;;;5.35;4.60;;;;;;;;;;10294196;28;20073;-63
2023/10/07 23:07:45;;;;;;;7.32;5.07;;;;;;;;;;10293572;28;20080;-63
2023/10/07 23:12:44;;;;;;;12.40;5.55;;;;;;;;;;10293499;28;20076;-63
2023/10/07 23:17:51;;;;;;;7.40;5.45;;;;;;;;;;10293790;28;20139;-63
2023/10/07 23:22:56;;;;;;;10.10;6.07;;;;;;;;;;10293980;28;20564;-63
2023/10/07 23:27:54;;;;;;;7.20;5.35;;;;;;;;;;10292096;28;20081;-63
2023/10/07 23:32:57;;;;;;;7.65;5.68;;;;;;;;;;10290909;28;20131;-63
2023/10/07 23:38:01;;;;;;;8.27;4.73;;;;;;;;;;10290066;28;20068;-62
2023/10/07 23:43:02;;;;;;;8.07;4.88;;;;;;;;;;10292347;28;20482;-63
2023/10/07 23:48:00;;;;;;;9.77;4.47;;;;;;;;;;10291792;28;20063;-63
2023/10/07 23:53:05;;;;;;;8.48;4.78;;;;;;;;;;10289439;28;20106;-63
2023/10/07 23:58:17;;;;;;;11.98;4.78;;;;;;;;;;10290640;28;20076;-63
